METAR Data
IDs: Format: Raw Decoded Include TAF

Data at: 1117 UTC 18 Jan 2022

KBWP 181115Z AUTO 14014KT 9SM SCT110 M02/M03 A2944 RMK AO2
KBWP 181055Z AUTO 14013KT 9SM BKN085 BKN110 M01/M03 A2945 RMK AO2
KBWP 181035Z AUTO 14013KT 8SM BKN080 OVC110 M02/M03 A2946 RMK AO2
KBWP 181015Z AUTO 15010KT 8SM FEW090 BKN110 M02/M03 A2948 RMK AO2
KBWP 180955Z AUTO 16013KT 8SM FEW090 SCT120 M02/M03 A2949 RMK AO2
KBWP 180935Z AUTO 16015KT 8SM BKN090 M02/M03 A2950 RMK AO2
KBWP 180915Z AUTO 16015KT 8SM OVC090 M02/M03 A2951 RMK AO2
KBWP 180855Z AUTO 15014KT 7SM BKN085 BKN120 M02/M03 A2952 RMK AO2
KBWP 180835Z AUTO 16014KT 7SM SCT085 BKN120 M02/M03 A2952 RMK AO2
KBWP 180815Z AUTO 15014KT 7SM FEW090 SCT120 M02/M03 A2954 RMK AO2
KBWP 180755Z AUTO 14011KT 7SM BKN110 M02/M03 A2955 RMK AO2
KBWP 180735Z AUTO 15011KT 7SM FEW095 BKN120 M02/M03 A2957 RMK AO2
KBWP 180715Z AUTO 16011KT 6SM BR FEW120 M03/M04 A2959 RMK AO2
KBWP 180655Z AUTO 15011KT 7SM FEW120 M03/M04 A2959 RMK AO2
KBWP 180635Z AUTO 15010KT 7SM SCT100 M03/M04 A2961 RMK AO2
KBWP 180615Z AUTO 15009KT 7SM SCT100 M03/M04 A2963 RMK AO2
KBWP 180555Z AUTO 15014KT 7SM SCT085 SCT120 M03/M04 A2962 RMK AO2
KBWP 180535Z AUTO 15013KT 7SM OVC085 M03/M04 A2963 RMK AO2
KBWP 180515Z AUTO 15007G15KT 7SM OVC080 M03/M04 A2966 RMK AO2
KBWP 180455Z AUTO 14012KT 7SM OVC085 M03/M04 A2965 RMK AO2
KBWP 180435Z AUTO 14012KT 7SM OVC085 M03/M04 A2967 RMK AO2
KBWP 180415Z AUTO 13010KT 7SM BKN090 M03/M04 A2968 RMK AO2
KBWP 180355Z AUTO 13009KT 7SM FEW090 M03/M04 A2970 RMK AO2
KBWP 180335Z AUTO 14007KT 8SM BKN090 M03/M04 A2972 RMK AO2
KBWP 180315Z AUTO 13007KT 8SM BKN095 M04/M04 A2972 RMK AO2
KBWP 180255Z AUTO 15008KT 9SM FEW090 M03/M04 A2972 RMK AO2
KBWP 180235Z AUTO 15009KT 9SM OVC085 M03/M04 A2973 RMK AO2
KBWP 180215Z AUTO 14006KT 10SM FEW070 OVC085 M02/M03 A2975 RMK AO2
KBWP 180155Z AUTO 14006KT 10SM SCT070 OVC085 M02/M03 A2975 RMK AO2
KBWP 180135Z AUTO 13006KT 10SM FEW070 OVC085 M02/M03 A2976 RMK AO2
KBWP 180115Z AUTO 12005KT 9SM FEW070 BKN080 OVC090 M02/M03 A2976 RMK AO2
KBWP 180055Z AUTO 13006KT 9SM FEW070 OVC085 M02/M03 A2976 RMK AO2
KBWP 180035Z AUTO 13005KT 10SM FEW070 OVC085 M02/M03 A2975 RMK AO2
KBWP 180015Z AUTO 12004KT 10SM SCT070 OVC085 M02/M04 A2976 RMK AO2
KBWP 172355Z AUTO 10004KT 9SM BKN070 OVC090 M02/M03 A2976 RMK AO2
KBWP 172335Z AUTO 10004KT 8SM OVC075 M02/M03 A2976 RMK AO2
KBWP 172315Z AUTO 12003KT 9SM OVC075 M02/M03 A2976 RMK AO2
KBWP 172255Z AUTO 12004KT 10SM BKN075 OVC090 M02/M04 A2976 RMK AO2
KBWP 172235Z AUTO 10004KT 9SM BKN075 OVC090 M02/M04 A2976 RMK AO2
KBWP 172215Z AUTO 09006KT 9SM BKN075 OVC095 M02/M04 A2976 RMK AO2
KBWP 172155Z AUTO 07005KT 9SM OVC075 M02/M03 A2977 RMK AO2
KBWP 172135Z AUTO 08005KT 9SM OVC075 M01/M03 A2978 RMK AO2
KBWP 172115Z AUTO 09005KT 9SM OVC075 M01/M03 A2977 RMK AO2
KBWP 172055Z AUTO 08004KT 10SM OVC075 M01/M03 A2977 RMK AO2
KBWP 172035Z AUTO 08004KT 10SM FEW065 OVC080 M01/M03 A2977 RMK AO2
KBWP 172015Z AUTO 00000KT 9SM OVC075 M02/M03 A2976 RMK AO2
KBWP 171955Z AUTO 00000KT 9SM OVC070 M02/M03 A2977 RMK AO2
KBWP 171935Z AUTO 27004KT 10SM OVC070 M02/M03 A2978 RMK AO2
KBWP 171915Z AUTO 00000KT 10SM OVC070 M02/M04 A2976 RMK AO2
KBWP 171855Z AUTO 00000KT 10SM OVC070 M02/M04 A2980 RMK AO2
KBWP 171835Z AUTO 22004KT 10SM OVC075 M02/M04 A2978 RMK AO2
KBWP 171815Z AUTO 23005KT 10SM OVC080 M02/M04 A2980 RMK AO2
KBWP 171755Z AUTO 19004KT 10SM SCT085 BKN120 M02/M04 A2980 RMK AO2
KBWP 171735Z AUTO 00000KT 10SM FEW085 BKN110 M03/M04 A2982 RMK AO2
KBWP 171715Z AUTO 20004KT 10SM BKN100 M03/M05 A2981 RMK AO2
KBWP 171655Z AUTO 19004KT 10SM OVC100 M03/M05 A2982 RMK AO2
KBWP 171635Z AUTO 15003KT 9SM OVC110 M04/M05 A2983 RMK AO2
KBWP 171615Z AUTO 08004KT 10SM OVC110 M04/M06 A2983 RMK AO2
KBWP 171555Z AUTO 08004KT 8SM OVC110 M05/M06 A2983 RMK AO2
KBWP 171535Z AUTO 08003KT 6SM BR BKN110 M06/M07 A2983 RMK AO2
KBWP 171515Z AUTO 08005KT 5SM BR BKN100 M06/M06 A2982 RMK AO2
KBWP 171455Z AUTO 00000KT 5SM BR BKN110 M07/M07 A2981 RMK AO2
KBWP 171435Z AUTO 00000KT 7SM FEW085 SCT110 M05/M06 A2981 RMK AO2
KBWP 171415Z AUTO 00000KT 9SM BKN090 OVC110 M05/M06 A2980 RMK AO2
KBWP 171355Z AUTO 24006KT 8SM OVC100 M04/M05 A2981 RMK AO2
KBWP 171335Z AUTO 23007KT 9SM OVC110 M04/M05 A2981 RMK AO2
KBWP 171315Z AUTO 24007KT 10SM BKN100 M05/M05 A2981 RMK AO2
KBWP 171255Z AUTO 24006KT 10SM SCT100 M05/M05 A2982 RMK AO2
KBWP 171235Z AUTO 24007KT 10SM SCT110 M05/M06 A2982 RMK AO2
KBWP 171215Z AUTO 23007KT 10SM BKN095 BKN120 M04/M05 A2982 RMK AO2
KBWP 171155Z AUTO 23007KT 10SM SCT100 BKN120 M04/M05 A2981 RMK AO2
KBWP 171135Z AUTO 22007KT 10SM FEW025 SCT110 M04/M05 A2982 RMK AO2
KBWP 171115Z AUTO 22007KT 10SM BKN019 BKN026 BKN120 M03/M05 A2982 RMK AO2
KBWP 171055Z AUTO 23007KT 10SM OVC021 M03/M04 A2983 RMK AO2
KBWP 171035Z AUTO 23009KT 10SM OVC024 M03/M04 A2983 RMK AO2
KBWP 171015Z AUTO 23009KT 10SM BKN021 OVC026 M03/M05 A2984 RMK AO2
KBWP 170955Z AUTO 23010KT 10SM OVC022 M04/M05 A2985 RMK AO2
KBWP 170935Z AUTO 21007KT 10SM OVC022 M04/M06 A2985 RMK AO2
KBWP 170915Z AUTO 20005KT 10SM OVC025 M04/M06 A2986 RMK AO2
KBWP 170855Z AUTO 19006KT 10SM OVC027 M05/M06 A2987 RMK AO2
KBWP 170835Z AUTO 19007KT 10SM FEW022 OVC029 M05/M06 A2987 RMK AO2
KBWP 170815Z AUTO 17005KT 10SM OVC030 M05/M06 A2988 RMK AO2
KBWP 170755Z AUTO 19005KT 10SM OVC030 M05/M06 A2988 RMK AO2
KBWP 170735Z AUTO 21005KT 10SM OVC030 M05/M06 A2989 RMK AO2
KBWP 170715Z AUTO 20005KT 10SM OVC031 M05/M06 A2990 RMK AO2
KBWP 170655Z AUTO 18006KT 10SM OVC032 M05/M07 A2990 RMK AO2
KBWP 170635Z AUTO 20006KT 10SM OVC031 M05/M07 A2991 RMK AO2
KBWP 170615Z AUTO 20006KT 10SM OVC028 M06/M07 A2991 RMK AO2
KBWP 170555Z AUTO 18007KT 10SM OVC027 M06/M07 A2992 RMK AO2
KBWP 170535Z AUTO 19004KT 10SM OVC026 M06/M07 A2993 RMK AO2
KBWP 170515Z AUTO 00000KT 10SM OVC028 M06/M07 A2994 RMK AO2
KBWP 170455Z AUTO 00000KT 10SM OVC029 M06/M08 A2994 RMK AO2
KBWP 170435Z AUTO 00000KT 10SM OVC029 M06/M08 A2994 RMK AO2
KBWP 170415Z AUTO 00000KT 10SM OVC030 M06/M08 A2995 RMK AO2
KBWP 170355Z AUTO 00000KT 10SM OVC030 M06/M08 A2996 RMK AO2
KBWP 170335Z AUTO 02003KT 10SM OVC031 M05/M07 A2996 RMK AO2
KBWP 170315Z AUTO 00000KT 10SM OVC030 M05/M07 A2996 RMK AO2
KBWP 170255Z AUTO 02005KT 10SM OVC031 M05/M07 A2997 RMK AO2
KBWP 170235Z AUTO 34005KT 10SM OVC032 M05/M06 A2997 RMK AO2
KBWP 170215Z AUTO 33007KT 10SM OVC033 M05/M06 A2997 RMK AO2
KBWP 170155Z AUTO 32008KT 10SM OVC034 M04/M06 A2997 RMK AO2
KBWP 170135Z AUTO 33007KT 10SM OVC034 M04/M06 A2996 RMK AO2
KBWP 170115Z AUTO 33009KT 10SM OVC035 M04/M06 A2995 RMK AO2
KBWP 170055Z AUTO 33008KT 10SM FEW026 OVC036 M04/M06 A2994 RMK AO2
KBWP 170035Z AUTO 33010KT 10SM SCT027 OVC036 M04/M06 A2994 RMK AO2
KBWP 170015Z AUTO 33010KT 10SM FEW022 BKN028 OVC034 M04/M06 A2994 RMK AO2
KBWP 162355Z AUTO 34009KT 10SM SCT023 BKN027 OVC033 M04/M06 A2995 RMK AO2
KBWP 162335Z AUTO 35011KT 10SM OVC022 M04/M06 A2994 RMK AO2